Flight Track Log - Related Links

Times and Time Zones

All times are in EDT time to prevent confusion due to time zone crossing. See the UAL906 flight status page for this flight to view local times or setup timezone preferences in your user account.

Time Position Orientation Groundspeed Altitude Reporting Facility
EDT Latitude Longitude Course Direction KTS MPH feet Rate Location/Type
Tue 06:48:52 AM 50.0470 8.5660 106° East 13 15  Level FlightAware ADS-B
Tue 06:50:01 AM 50.0460 8.5640 232° Southwest 17 20 36 Level FlightAware ADS-B
Tue 06:52:00 AM 50.1721 8.2411 300° West  Level FlightAware Approximate
Tue 06:53:00 AM 50.2408 8.0852 308° West  Level FlightAware Approximate
Tue 06:53:16 AM 50.0470 8.5630 308° West  Level FlightAware ADS-B
Tue 06:53:47 AM 50.0460 8.5630 180° South 10 12 47 Level FlightAware ADS-B
Tue 06:54:18 AM 50.0470 8.5640 33° Northeast 17 20 48 Level FlightAware ADS-B
Tue 06:54:46 AM 50.0460 8.5650 147° Southeast 23 26 50 Level FlightAware ADS-B
Tue 06:55:13 AM 50.0450 8.5630 232° Southwest 31 36 52 Level FlightAware ADS-B
Tue 06:55:29 AM 50.0450 8.5620 270° West 34 39 54 Level FlightAware ADS-B
Tue 06:55:52 AM 50.0440 8.5600 232° Southwest 22 25 55 Level FlightAware ADS-B
Tue 06:56:22 AM 50.0430 8.5610 147° Southeast 22 25 56 Level FlightAware ADS-B
Tue 06:56:38 AM 50.0430 8.5620 90° East 22 25 59 Level FlightAware ADS-B
Tue 06:56:54 AM 50.0420 8.5620 180° South 27 31 60 Level FlightAware ADS-B
Tue 06:57:18 AM 50.0410 8.5630 147° Southeast 26 30 62 Level FlightAware ADS-B
Tue 06:57:42 AM 50.0420 8.5650 52° Northeast 26 30 64 Level FlightAware ADS-B
Tue 06:58:10 AM 50.0420 8.5670 90° East 23 26 66 Level FlightAware ADS-B
Tue 06:58:38 AM 50.0420 8.5680 90° East 17 20 69 Level FlightAware ADS-B
Tue 06:59:06 AM 50.0430 8.5700 52° Northeast 33 38 73 Level FlightAware ADS-B
Tue 06:59:25 AM 50.0430 8.5720 90° East 33 38 76 Level FlightAware ADS-B
Tue 06:59:50 AM 50.0440 8.5740 52° Northeast 34 39 79 Level FlightAware ADS-B
Tue 07:00:22 AM 50.0450 8.5770 63° Northeast 27 31 83 Level FlightAware ADS-B
Tue 07:01:47 AM 50.0450 8.5790 90° East 23 26 89 Level FlightAware ADS-B
Tue 07:02:14 AM 50.0460 8.5810 52° Northeast 34 39 108 Level FlightAware ADS-B
Tue 07:02:42 AM 50.0460 8.5840 90° East 31 36 116 Level FlightAware ADS-B
Tue 07:03:12 AM 50.0470 8.5850 33° Northeast 21 24 126 Level FlightAware ADS-B
Tue 07:03:40 AM 50.0470 8.5870 90° East 19 22 138 Level FlightAware ADS-B
Tue 07:04:08 AM 50.0460 8.5880 147° Southeast 15 17 152 Level FlightAware ADS-B
Tue 07:05:24 AM 50.0460 8.5870 270° West 18 21 169 Level FlightAware ADS-B
Tue 07:05:52 AM 50.0450 8.5860 213° Southwest 24 28 244 Level FlightAware ADS-B
Tue 07:07:24 AM 50.0450 8.5850 270° West 24 28 292 Level FlightAware ADS-B
Tue 07:07:52 AM 50.0400 8.5660 248° West 150 173 808 Level FlightAware ADS-B
Tue 07:08:16 AM 50.0330 8.5370 249° West 189 217 700 2,000 Climbing FlightAware ADS-B
Tue 07:08:40 AM 50.0280 8.5070 255° West 190 219 1,600 2,151 Climbing FlightAware ADS-B
Tue 07:09:09 AM 50.0290 8.4680 272° West 198 228 2,600 1,839 Climbing FlightAware ADS-B
Tue 07:09:42 AM 50.0280 8.4190 268° West 206 237 3,500 1,433 Climbing FlightAware ADS-B
Tue 07:10:16 AM 50.0210 8.3680 258° West 229 264 4,200 1,119 Climbing FlightAware ADS-B
Tue 07:10:41 AM 50.0160 8.3260 260° West 256 295 4,600 1,543 Climbing FlightAware ADS-B
Tue 07:11:26 AM 50.0240 8.2370 278° West 285 328 6,000 1,644 Climbing FlightAware ADS-B
Tue 07:11:54 AM 50.0370 8.1930 295° West 299 344 6,600 1,179 Climbing FlightAware ADS-B
Tue 07:12:22 AM 50.0590 8.1250 297° West 339 390 7,100 1,393 Climbing FlightAware ADS-B
Tue 07:12:50 AM 50.0860 8.0690 307° West 352 405 7,900 1,962 Climbing FlightAware ADS-B
Tue 07:13:14 AM 50.1100 8.0210 308° West 360 414 8,800 2,204 Climbing FlightAware ADS-B
Tue 07:13:39 AM 50.1390 7.9750 315° West 365 420 9,700 2,143 Climbing FlightAware ADS-B
Tue 07:14:24 AM 50.2030 7.9060 325° Northwest 373 429 11,300 2,169 Climbing FlightAware ADS-B
Tue 07:15:02 AM 50.2580 7.8480 326° Northwest 377 434 12,700 2,122 Climbing FlightAware ADS-B
Tue 07:15:46 AM 50.3220 7.7810 326° Northwest 384 442 14,200 1,909 Climbing FlightAware ADS-B
Tue 07:16:30 AM 50.3870 7.7120 326° Northwest 393 452 15,500 1,714 Climbing FlightAware ADS-B
Tue 07:17:10 AM 50.4470 7.6480 326° Northwest 400 460 16,600 1,714 Climbing FlightAware ADS-B
Tue 07:17:54 AM 50.5160 7.5740 326° Northwest 406 467 17,900 1,714 Climbing FlightAware ADS-B
Tue 07:18:34 AM 50.5780 7.5080 326° Northwest 409 471 19,000 1,650 Climbing FlightAware ADS-B
Tue 07:19:14 AM 50.6430 7.4430 328° Northwest 413 475 20,100 1,571 Climbing FlightAware ADS-B
Tue 07:19:58 AM 50.7120 7.3720 327° Northwest 417 480 21,200 1,800 Climbing FlightAware ADS-B
Tue 07:20:34 AM 50.7710 7.3120 327° Northwest 411 473 22,500 2,214 Climbing FlightAware ADS-B
Tue 07:21:22 AM 50.8450 7.2350 327° Northwest 404 465 24,300 1,705 Climbing FlightAware ADS-B
Tue 07:22:02 AM 50.9070 7.1710 327° Northwest 412 474 25,000 800 Climbing FlightAware ADS-B
Tue 07:22:37 AM 50.9640 7.1080 325° Northwest 429 494 25,300 640 Climbing FlightAware ADS-B
Tue 07:23:17 AM 51.0240 7.0280 320° Northwest 440 506 25,800 918 Climbing FlightAware ADS-B
Tue 07:24:02 AM 51.0850 6.9200 312° West 447 514 26,600 1,103 Climbing FlightAware ADS-B
Tue 07:24:44 AM 51.1410 6.8130 310° West 451 519 27,400 1,047 Climbing FlightAware ADS-B
Tue 07:25:28 AM 51.1990 6.7010 310° West 458 527 28,100 1,229 Climbing FlightAware ADS-B
Tue 07:26:07 AM 51.2530 6.5970 310° West 456 525 29,100 1,291 Climbing FlightAware ADS-B
Tue 07:26:47 AM 51.3090 6.4880 309° West 459 528 29,800 975 Climbing FlightAware ADS-B
Tue 07:27:27 AM 51.3610 6.3870 310° West 462 532 30,400 868 Climbing FlightAware ADS-B
Tue 07:28:03 AM 51.4110 6.2890 309° West 465 535 30,900 1,084 Climbing FlightAware ADS-B
Tue 07:28:50 AM 51.4730 6.1670 309° West 462 532 31,900 742 Climbing FlightAware ADS-B
Tue 07:29:32 AM 51.5290 6.0560 309° West 462 532 32,000 75 Climbing FlightAware ADS-B
Tue 07:30:10 AM 51.5810 5.9540 309° West 462 532 32,000  Level FlightAware ADS-B
Tue 07:30:58 AM 51.6470 5.8230 309° West 464 534 32,000  Level FlightAware ADS-B
Tue 07:31:38 AM 51.7010 5.7140 309° West 465 535 32,000  Level FlightAware ADS-B
Tue 07:32:14 AM 51.7480 5.6180 309° West 466 536 32,000  Level FlightAware ADS-B
Tue 07:32:20 AM 51.7543 5.5997 309° West 486 559 32,000 750 Level FlightAware UK
Tue 07:32:54 AM 51.8020 5.5100 309° West 466 536 32,500 1,000 Climbing FlightAware ADS-B
Tue 07:33:38 AM 51.8610 5.3900 309° West 461 531 33,300 1,154 Climbing FlightAware ADS-B
Tue 07:34:12 AM 51.9060 5.2990 309° West 456 525 34,000 1,000 Climbing FlightAware ADS-B
Tue 07:34:20 AM 51.9187 5.2796 309° West 482 555 34,000  Level FlightAware UK
Tue 07:34:54 AM 51.9600 5.1880 308° West 457 526 34,000  Level FlightAware ADS-B
Tue 07:35:34 AM 52.0130 5.0800 309° West 457 526 34,000  Level FlightAware ADS-B
Tue 07:36:18 AM 52.0700 4.9630 308° West 457 526 34,000  Level FlightAware ADS-B
Tue 07:36:57 AM 52.1190 4.8600 308° West 457 526 34,000  Level FlightAware ADS-B
Tue 07:37:41 AM 52.1770 4.7370 308° West 456 525 34,000 -128 Level FlightAware ADS-B
Tue 07:37:44 AM 52.1811 4.7284 308° West 478 550 33,900  Descending FlightAware UK
Tue 07:38:14 AM 52.2176 4.6443 308° West 478 550 34,000 146 Climbing FlightAware UK
Tue 07:38:25 AM 52.2270 4.6140 308° West 457 526 34,000  Level FlightAware ADS-B
Tue 07:39:03 AM 52.2680 4.5050 302° West 458 527 34,000  Level FlightAware ADS-B
Tue 07:39:47 AM 52.3170 4.3730 301° West 458 527 34,000 -68 Level FlightAware ADS-B
Tue 07:40:31 AM 52.3681 4.2362 301° West 478 550 33,900  Descending FlightAware UK
Tue 07:40:31 AM 52.3650 4.2430 301° West 459 528 34,000 150 Climbing FlightAware ADS-B
Tue 07:41:11 AM 52.4100 4.1190 301° West 461 531 34,000  Level FlightAware ADS-B
Tue 07:41:49 AM 52.4533 4.0039 301° West 478 550 34,000  Level FlightAware UK
Tue 07:41:55 AM 52.4580 3.9890 301° West 462 532 34,000  Level FlightAware ADS-B
Tue 07:42:35 AM 52.5030 3.8690 302° West 462 532 34,000  Level FlightAware ADS-B
Tue 07:43:11 AM 52.5410 3.7630 301° West 462 532 34,000  Level FlightAware ADS-B
Tue 07:43:59 AM 52.5890 3.6140 298° West 462 532 34,000  Level FlightAware ADS-B
Tue 07:44:39 AM 52.6260 3.4890 296° West 463 533 34,000  Level FlightAware ADS-B
Tue 07:45:25 AM 52.6690 3.3420 296° West 464 534 34,000  Level FlightAware ADS-B
Tue 07:45:59 AM 52.7010 3.2340 296° West 464 534 34,000  Level FlightAware ADS-B
Tue 07:46:38 AM 52.7380 3.1060 296° West 466 536 34,000  Level FlightAware ADS-B
Tue 07:47:22 AM 52.7780 2.9670 295° West 467 537 34,000  Level FlightAware ADS-B
Tue 07:48:03 AM 52.8170 2.8320 296° West 468 539 34,000  Level FlightAware ADS-B
Tue 07:48:37 AM 52.8492 2.7217 296° West 478 550 34,000  Level FlightAware UK
Tue 07:48:39 AM 52.8500 2.7180 296° West 469 540 34,000  Level FlightAware ADS-B
Tue 07:49:13 AM 52.8825 2.6052 296° West 478 550 34,000  Level FlightAware UK
Tue 07:49:23 AM 52.8910 2.5760 296° West 471 542 34,000  Level FlightAware ADS-B
Tue 07:50:03 AM 52.9290 2.4430 295° West 471 542 34,000  Level FlightAware ADS-B
Tue 07:50:45 AM 52.9670 2.3070 295° West 473 544 34,000  Level FlightAware ADS-B
Tue 07:51:25 AM 53.0043 2.1746 295° West 478 550 34,000  Level FlightAware UK
Tue 07:51:29 AM 53.0080 2.1630 295° West 475 547 34,000  Level FlightAware ADS-B
Tue 07:52:09 AM 53.0450 2.0310 295° West 476 548 34,000  Level FlightAware ADS-B
Tue 07:52:30 AM 53.0642 1.9606 294° West 477 549 34,000  Level FlightAware ADS-B
Tue 07:53:04 AM 53.0956 1.8474 295° West 478 550 34,000  Level FlightAware ADS-B
Tue 07:53:34 AM 53.1230 1.7480 295° West 478 550 34,000  Level FlightAware ADS-B
Tue 07:53:49 AM 53.1376 1.6951 295° West 478 550 34,000  Level FlightAware ADS-B
Tue 07:54:23 AM 53.1681 1.5836 295° West 478 550 34,000  Level FlightAware ADS-B
Tue 07:54:57 AM 53.1994 1.4694 295° West 479 551 34,000  Level FlightAware ADS-B
Tue 07:55:38 AM 53.2360 1.3330 294° West 480 552 34,000  Level FlightAware ADS-B
Tue 07:55:50 AM 53.2480 1.2903 295° West 481 554 34,000  Level FlightAware ADS-B
Tue 07:56:24 AM 53.2783 1.1775 294° West 481 554 34,000  Level FlightAware ADS-B
Tue 07:57:00 AM 53.3100 1.0600 294° West 480 552 34,000  Level FlightAware ADS-B
Tue 07:57:36 AM 53.3420 0.9400 294° West 480 552 34,000  Level FlightAware ADS-B
Tue 07:58:22 AM 53.3840 0.7820 294° West 481 554 34,000  Level FlightAware ADS-B
Tue 07:58:54 AM 53.4140 0.6669 294° West 480 552 34,000  Level FlightAware UK
Tue 07:59:02 AM 53.4190 0.6490 294° West 481 554 34,000  Level FlightAware ADS-B
Tue 07:59:38 AM 53.4510 0.5240 293° West 482 555 34,000  Level FlightAware ADS-B
Tue 08:00:12 AM 53.4867 0.4023 293° West 480 552 34,000  Level FlightAware UK
Tue 08:00:43 AM 53.5240 0.3070 293° West 489 563 34,000  Level FlightAware ADS-B
Tue 08:01:11 AM 53.5614 0.2179 305° West 491 565 34,000  Level FlightAware ADS-B
Tue 08:01:42 AM 53.6022 0.1228 306° West 492 566 34,000  Level FlightAware ADS-B
Tue 08:02:12 AM 53.6423 0.0287 306° West 492 566 34,000  Level FlightAware ADS-B
Tue 08:02:45 AM 53.6867 -0.0705 307° West 496 571 34,000  Level FlightAware ADS-B
Tue 08:03:11 AM 53.7308 -0.1392 317° Northwest 501 577 34,000  Level FlightAware ADS-B
Tue 08:04:05 AM 53.8354 -0.2626 317° Northwest 476 548 34,000  Level FlightAware UK
Tue 08:04:08 AM 53.8410 -0.2690 317° Northwest 504 580 34,000  Level FlightAware ADS-B
Tue 08:04:41 AM 53.9049 -0.3418 317° Northwest 476 548 34,000  Level FlightAware UK
Tue 08:04:53 AM 53.9260 -0.3650 317° Northwest 505 581 34,000  Level FlightAware ADS-B
Tue 08:05:33 AM 54.0030 -0.4550 317° Northwest 505 581 34,000  Level FlightAware ADS-B
Tue 08:05:35 AM 54.0088 -0.4612 317° Northwest 476 548 34,000  Level FlightAware UK
Tue 08:06:05 AM 54.0666 -0.5287 317° Northwest 476 548 34,000  Level FlightAware UK
Tue 08:06:13 AM 54.0800 -0.5450 317° Northwest 507 583 34,000  Level FlightAware ADS-B
Tue 08:06:54 AM 54.1560 -0.6330 326° Northwest 509 586 34,000  Level FlightAware ADS-B
Tue 08:07:41 AM 54.2516 -0.7467 326° Northwest 476 548 34,000  Level FlightAware UK
Tue 08:07:42 AM 54.2530 -0.7480 326° Northwest 509 586 34,000 150 Level FlightAware ADS-B
Tue 08:08:21 AM 54.3270 -0.8360 326° Northwest 508 585 34,100 146 Climbing FlightAware ADS-B
Tue 08:08:23 AM 54.3330 -0.8426 326° Northwest 476 548 34,100 316 Level FlightAware UK
Tue 08:08:59 AM 54.4023 -0.9251 326° Northwest 478 550 34,300 409 Climbing FlightAware UK
Tue 08:09:07 AM 54.4160 -0.9410 326° Northwest 505 581 34,400 600 Climbing FlightAware ADS-B
Tue 08:09:39 AM 54.4780 -1.0160 325° Northwest 505 581 34,700 553 Climbing FlightAware ADS-B
Tue 08:10:23 AM 54.5620 -1.1170 325° Northwest 504 580 35,100 600 Climbing FlightAware ADS-B
Tue 08:10:59 AM 54.6300 -1.1990 325° Northwest 504 580 35,500 636 Climbing FlightAware ADS-B
Tue 08:11:29 AM 54.6883 -1.2691 325° Northwest 474 545 35,800 625 Climbing FlightAware UK
Tue 08:11:47 AM 54.7150 -1.3020 325° Northwest 503 579 36,000 200 Climbing FlightAware ADS-B
Tue 08:12:29 AM 54.8000 -1.4050 325° Northwest 502 578 36,000 -77 Level FlightAware ADS-B
Tue 08:13:05 AM 54.8697 -1.4905 325° Northwest 478 550 35,900  Descending FlightAware UK
Tue 08:13:09 AM 54.8750 -1.4970 325° Northwest 500 575 36,000 122 Climbing FlightAware ADS-B
Tue 08:13:54 AM 54.9620 -1.6030 325° Northwest 499 574 36,000  Level FlightAware ADS-B
Tue 08:14:27 AM 55.0200 -1.6830 322° Northwest 494 568 36,000  Level FlightAware ADS-B
Tue 08:15:09 AM 55.0730 -1.8200 304° West 483 556 36,000  Level FlightAware ADS-B
Tue 08:15:51 AM 55.1150 -1.9650 297° West 484 557 36,000  Level FlightAware ADS-B
Tue 08:16:22 AM 55.1471 -2.0782 297° West 472 543 36,000  Level FlightAware UK
Tue 08:16:27 AM 55.1500 -2.0900 297° West 485 558 36,000  Level FlightAware ADS-B
Tue 08:16:58 AM 55.1827 -2.2046 297° West 470 541 36,000  Level FlightAware UK
Tue 08:17:07 AM 55.1910 -2.2350 297° West 487 560 36,000  Level FlightAware ADS-B
Tue 08:17:46 AM 55.2302 -2.3731 297° West 470 541 36,000  Level FlightAware UK
Tue 08:17:51 AM 55.2340 -2.3850 297° West 489 563 36,000  Level FlightAware ADS-B
Tue 08:18:28 AM 55.2719 -2.5225 297° West 470 541 36,000  Level FlightAware UK
Tue 08:18:31 AM 55.2740 -2.5300 297° West 490 564 36,000  Level FlightAware ADS-B
Tue 08:19:04 AM 55.3076 -2.6510 297° West 468 539 36,000  Level FlightAware UK
Tue 08:19:16 AM 55.3180 -2.6860 297° West 492 566 36,000 -143 Level FlightAware ADS-B
Tue 08:19:46 AM 55.3490 -2.8008 297° West 468 539 35,900  Descending FlightAware UK
Tue 08:19:54 AM 55.3570 -2.8290 297° West 492 566 36,000 113 Climbing FlightAware ADS-B
Tue 08:20:39 AM 55.4000 -2.9880 296° West 494 568 36,000  Level FlightAware ADS-B
Tue 08:21:17 AM 55.4340 -3.1120 296° West 495 570 36,000  Level FlightAware ADS-B
Tue 08:22:01 AM 55.4820 -3.2880 296° West 495 570 36,000 -79 Level FlightAware ADS-B
Tue 08:22:33 AM 55.5176 -3.4051 296° West 470 541 35,900  Descending FlightAware UK
Tue 08:22:39 AM 55.5150 -3.3960 296° West 498 573 36,000 167 Climbing FlightAware ADS-B
Tue 08:23:09 AM 55.5605 -3.5308 296° West 472 543 36,000  Level FlightAware UK
Tue 08:23:27 AM 55.5790 -3.5840 296° West 503 579 36,000  Level FlightAware ADS-B
Tue 08:24:03 AM 55.6210 -3.7060 301° West 504 580 36,000 -77 Level FlightAware ADS-B
Tue 08:24:45 AM 55.6760 -3.8670 301° West 474 545 35,900  Descending FlightAware UK
Tue 08:24:51 AM 55.6740 -3.8610 301° West 505 581 36,000  Climbing FlightAware ADS-B
Tue 08:25:27 AM 55.7262 -4.0157 301° West 476 548 35,900  Descending FlightAware UK
Tue 08:25:27 AM 55.7190 -3.9930 301° West 504 580 36,000  Climbing FlightAware ADS-B
Tue 08:25:57 AM 55.7620 -4.1217 301° West 476 548 35,900  Descending FlightAware UK
Tue 08:26:11 AM 55.7720 -4.1500 301° West 505 581 36,000 111 Climbing FlightAware ADS-B
Tue 08:26:51 AM 55.8160 -4.2810 301° West 508 585 36,000  Level FlightAware ADS-B
Tue 08:27:36 AM 55.8700 -4.4490 301° West 509 586 36,000  Level FlightAware ADS-B
Tue 08:27:39 AM 55.8815 -4.4886 301° West 478 550 36,000 -182 Level FlightAware UK
Tue 08:28:09 AM 55.9114 -4.6027 301° West 478 550 35,900  Descending FlightAware UK
Tue 08:28:33 AM 55.9340 -4.6860 301° West 510 587 36,000 100 Climbing FlightAware ADS-B
Tue 08:29:09 AM 55.9689 -4.8324 301° West 480 552 36,000  Level FlightAware UK
Tue 08:29:13 AM 55.9700 -4.8390 301° West 511 588 36,000  Level FlightAware ADS-B
Tue 08:29:45 AM 56.0009 -4.9725 301° West 482 555 36,000  Level FlightAware UK
Tue 08:29:58 AM 56.0100 -5.0150 301° West 509 586 36,000  Level FlightAware ADS-B
Tue 08:30:38 AM 56.0450 -5.1710 292° West 509 586 36,000  Level FlightAware ADS-B
Tue 08:31:21 AM 56.0839 -5.3489 292° West 482 555 36,000  Level FlightAware UK
Tue 08:31:23 AM 56.0840 -5.3510 292° West 511 588 36,000  Level FlightAware ADS-B
Tue 08:31:57 AM 56.1149 -5.4912 292° West 482 555 36,000  Level FlightAware UK
Tue 08:32:03 AM 56.1180 -5.5080 292° West 512 589 36,000  Level FlightAware ADS-B
Tue 08:32:33 AM 56.1461 -5.6338 292° West 480 552 36,000  Level FlightAware UK
Tue 08:32:38 AM 56.1490 -5.6480 292° West 513 590 36,000  Level FlightAware ADS-B
Tue 08:33:23 AM 56.1880 -5.8270 291° West 513 590 36,000  Level FlightAware ADS-B
Tue 08:34:03 AM 56.2233 -5.9924 291° West 482 555 36,000  Level FlightAware UK
Tue 08:34:03 AM 56.2220 -5.9880 291° West 514 592 36,000  Level FlightAware ADS-B
Tue 08:34:33 AM 56.2489 -6.1124 291° West 482 555 36,000  Level FlightAware UK
Tue 08:34:43 AM 56.2560 -6.1470 291° West 515 593 36,000  Level FlightAware ADS-B
Tue 08:35:23 AM 56.2910 -6.3090 291° West 516 594 36,000  Level FlightAware ADS-B
Tue 08:36:08 AM 56.3280 -6.4900 291° West 516 594 36,000  Level FlightAware ADS-B
Tue 08:36:09 AM 56.3302 -6.4976 291° West 480 552 36,000  Level FlightAware UK
Tue 08:36:39 AM 56.3555 -6.6187 291° West 482 555 36,000  Level FlightAware UK
Tue 08:36:44 AM 56.3580 -6.6330 291° West 518 596 36,000  Level FlightAware ADS-B
Tue 08:37:25 AM 56.3910 -6.7930 290° West 521 600 36,000  Level FlightAware ADS-B
Tue 08:38:04 AM 56.4250 -6.9590 290° West 522 601 36,000  Level FlightAware ADS-B
Tue 08:38:09 AM 56.4309 -6.9852 290° West 480 552 36,000  Level FlightAware UK
Tue 08:38:39 AM 56.4559 -7.1080 290° West 480 552 36,000  Level FlightAware UK
Tue 08:38:48 AM 56.4630 -7.1420 290° West 523 602 36,000  Level FlightAware ADS-B
Tue 08:39:33 AM 56.4990 -7.3240 290° West 525 604 36,000  Level FlightAware ADS-B
Tue 08:40:09 AM 56.5302 -7.4781 290° West 480 552 36,000  Level FlightAware UK
Tue 08:40:13 AM 56.5330 -7.4910 290° West 526 605 36,000  Level FlightAware ADS-B
Tue 08:40:44 AM 56.5595 -7.6262 290° West 480 552 36,000  Level FlightAware UK
Tue 08:40:53 AM 56.5650 -7.6540 290° West 526 605 36,000  Level FlightAware ADS-B
Tue 08:41:33 AM 56.5980 -7.8230 290° West 528 608 36,000  Level FlightAware ADS-B
Tue 08:42:13 AM 56.6300 -7.9900 290° West 530 610 36,000  Level FlightAware ADS-B
Tue 08:42:14 AM 56.6329 -8.0007 290° West 482 555 36,000  Level FlightAware UK
Tue 08:42:44 AM 56.6571 -8.1264 290° West 482 555 36,000  Level FlightAware UK
Tue 08:42:53 AM 56.6630 -8.1580 290° West 531 611 36,000  Level FlightAware ADS-B
Tue 08:43:38 AM 56.6990 -8.3470 289° West 528 608 36,000  Level FlightAware ADS-B
Tue 08:44:13 AM 56.7260 -8.4890 289° West 529 609 36,000  Level FlightAware ADS-B
Tue 08:44:14 AM 56.7294 -8.5053 289° West 480 552 36,000  Level FlightAware UK
Tue 08:44:44 AM 56.7531 -8.6321 289° West 480 552 36,000  Level FlightAware UK
Tue 08:44:53 AM 56.7590 -8.6620 289° West 530 610 36,000  Level FlightAware ADS-B
Tue 08:45:38 AM 56.7930 -8.8500 288° West 531 611 36,000  Level FlightAware ADS-B
Tue 08:46:13 AM 56.8210 -9.0010 289° West 531 611 36,000  Level FlightAware ADS-B
Tue 08:47:00 AM 56.8590 -9.2070 289° West 532 612 36,000  Level FlightAware ADS-B
Tue 08:47:40 AM 56.8880 -9.3690 288° West 532 612 36,000  Level FlightAware ADS-B
Tue 08:48:22 AM 56.9210 -9.5540 288° West 534 615 36,000  Level FlightAware ADS-B
Tue 08:49:12 AM 56.9550 -9.7430 288° West 534 615 36,000  Level FlightAware ADS-B
Tue 08:49:52 AM 56.9820 -9.9020 287° West 533 613 36,000  Level FlightAware ADS-B
Tue 08:50:52 AM 57.0190 -10.1230 287° West 533 613 36,000  Level FlightAware ADS-B
Tue 08:51:32 AM 57.0810 -10.3260 299° West 535 616 36,000  Level FlightAware ADS-B
Tue 08:52:17 AM 57.1430 -10.5390 298° West 532 612 36,000  Level FlightAware ADS-B
Tue 08:53:00 AM 57.1860 -10.6920 297° West 530 610 36,000  Level FlightAware ADS-B
Tue 08:53:36 AM 57.2200 -10.8160 297° West 530 610 36,000  Level FlightAware ADS-B
Tue 08:54:24 AM 57.2660 -10.9800 297° West 530 610 36,000  Level FlightAware ADS-B
Tue 08:55:01 AM 57.3090 -11.1840 291° West 529 609 36,000  Level FlightAware ADS-B
Tue 08:55:49 AM 57.3480 -11.3550 293° West 529 609 36,000  Level FlightAware ADS-B
Tue 08:56:25 AM 57.3770 -11.4830 293° West 529 609 36,000  Level FlightAware ADS-B
Tue 08:57:13 AM 57.4160 -11.6530 293° West 529 609 36,000  Level FlightAware ADS-B
Tue 08:57:49 AM 57.4450 -11.7810 293° West 529 609 36,000  Level FlightAware ADS-B
Tue 08:58:26 AM 57.4750 -11.9130 293° West 529 609 36,000  Level FlightAware ADS-B
Tue 08:59:14 AM 57.5140 -12.0840 293° West 529 609 36,000  Level FlightAware ADS-B
Tue 09:00:14 AM 57.5630 -12.2980 293° West 529 609 36,000  Level FlightAware ADS-B
Tue 09:00:50 AM 57.5920 -12.4270 293° West 529 609 36,000  Level FlightAware ADS-B
Tue 09:01:38 AM 57.6310 -12.5980 293° West 529 609 36,000  Level FlightAware ADS-B
Tue 09:02:14 AM 57.6600 -12.7270 293° West 529 609 36,000  Level FlightAware ADS-B
Tue 09:03:02 AM 57.6990 -12.8990 293° West 529 609 36,000  Level FlightAware ADS-B
Tue 09:03:38 AM 57.7290 -13.0280 294° West 529 609 36,000  Level FlightAware ADS-B
Tue 09:04:26 AM 57.7680 -13.2000 293° West 529 609 36,000  Level FlightAware ADS-B
Tue 09:07:00 AM 57.8504 -13.7916 285° West  Level Estimated
Tue 09:08:00 AM 57.8818 -14.0228 284° West  Level Estimated
Tue 09:09:00 AM 57.9315 -14.2532 292° West  Level FlightAware Approximate
Tue 09:10:00 AM 57.9808 -14.4843 292° West  Level FlightAware Approximate
Tue 09:11:00 AM 58.0297 -14.7159 292° West  Level FlightAware Approximate
Tue 09:12:00 AM 58.0782 -14.9483 292° West  Level FlightAware Approximate
Tue 09:13:00 AM 58.1262 -15.1812 291° West  Level FlightAware Approximate
Tue 09:14:00 AM 58.1738 -15.4148 291° West  Level FlightAware Approximate
Tue 09:15:00 AM 58.2210 -15.6490 291° West  Level FlightAware Approximate
Tue 09:16:00 AM 58.2677 -15.8838 291° West  Level FlightAware Approximate
Tue 09:17:00 AM 58.3140 -16.1192 291° West  Level FlightAware Approximate
Tue 09:18:00 AM 58.3599 -16.3553 290° West  Level FlightAware Approximate
Tue 09:19:00 AM 58.4054 -16.5920 290° West  Level FlightAware Approximate
Tue 09:20:00 AM 58.4504 -16.8293 290° West  Level FlightAware Approximate
Tue 09:21:00 AM 58.4950 -17.0671 290° West  Level FlightAware Approximate
Tue 09:22:00 AM 58.5391 -17.3056 290° West  Level FlightAware Approximate
Tue 09:23:00 AM 58.5828 -17.5447 289° West  Level FlightAware Approximate
Tue 09:24:00 AM 58.6260 -17.7844 289° West  Level FlightAware Approximate
Tue 09:25:00 AM 58.6688 -18.0246 289° West  Level FlightAware Approximate
Tue 09:26:00 AM 58.7112 -18.2655 289° West  Level FlightAware Approximate
Tue 09:27:00 AM 58.7530 -18.5069 289° West  Level FlightAware Approximate
Tue 09:28:00 AM 58.7945 -18.7489 288° West  Level FlightAware Approximate
Tue 09:29:00 AM 58.8355 -18.9915 288° West  Level FlightAware Approximate
Tue 09:29:00 AM 59.0000 -20.0000 285° West 516 594 36,000  Level ETMS Enhanced Traffic Management System
Tue 09:30:00 AM 58.8760 -19.2347 288° West  Level FlightAware Approximate
Tue 09:31:00 AM 58.9161 -19.4784 288° West  Level FlightAware Approximate
Tue 09:32:00 AM 58.9557 -19.7227 288° West  Level FlightAware Approximate
Tue 09:33:00 AM 58.9949 -19.9676 287° West  Level FlightAware Approximate
Tue 09:34:00 AM 59.0305 -20.2158 285° West  Level FlightAware Approximate
Tue 09:35:00 AM 59.2191 -21.6225 284° West 516 594 36,000  Level FlightAware Transoceanic
Tue 09:36:00 AM 59.2536 -21.8949 284° West 516 594 36,000  Level FlightAware Transoceanic
Tue 09:37:00 AM 59.2876 -22.1678 284° West 516 594 36,000  Level FlightAware Transoceanic
Tue 09:38:00 AM 59.3209 -22.4413 283° West 516 594 36,000  Level FlightAware Transoceanic
Tue 09:39:00 AM 59.3538 -22.7153 283° West 516 594 36,000  Level FlightAware Transoceanic
Tue 09:40:00 AM 59.3860 -22.9899 283° West 516 594 36,000  Level FlightAware Transoceanic
Tue 09:41:00 AM 59.4177 -23.2649 283° West 516 594 36,000  Level FlightAware Transoceanic
Tue 09:42:00 AM 59.4487 -23.5405 282° West 516 594 36,000  Level FlightAware Transoceanic
Tue 09:43:00 AM 59.4793 -23.8166 282° West 516 594 36,000  Level FlightAware Transoceanic
Tue 09:44:00 AM 59.5092 -24.0931 282° West 516 594 36,000  Level FlightAware Transoceanic
Tue 09:45:00 AM 59.5385 -24.3702 282° West 516 594 36,000  Level FlightAware Transoceanic
Tue 09:46:00 AM 59.5673 -24.6477 281° West 516 594 36,000  Level FlightAware Transoceanic
Tue 09:47:00 AM 59.5954 -24.9257 281° West 516 594 36,000  Level FlightAware Transoceanic
Tue 09:48:00 AM 59.6230 -25.2042 281° West 516 594 36,000  Level FlightAware Transoceanic
Tue 09:49:00 AM 59.6500 -25.4831 281° West 516 594 36,000  Level FlightAware Transoceanic
Tue 09:50:00 AM 59.6763 -25.7625 280° West 516 594 36,000  Level FlightAware Transoceanic
Tue 09:51:00 AM 59.7021 -26.0423 280° West 516 594 36,000  Level FlightAware Transoceanic
Tue 09:52:00 AM 59.7273 -26.3225 280° West 516 594 36,000  Level FlightAware Transoceanic
Tue 09:53:00 AM 59.7519 -26.6031 280° West 516 594 36,000  Level FlightAware Transoceanic
Tue 09:54:00 AM 59.7759 -26.8842 280° West 516 594 36,000  Level FlightAware Transoceanic
Tue 09:55:00 AM 59.7993 -27.1656 279° West 516 594 36,000  Level FlightAware Transoceanic
Tue 09:56:00 AM 59.8221 -27.4475 279° West 516 594 36,000  Level FlightAware Transoceanic
Tue 09:57:00 AM 59.8443 -27.7297 279° West 516 594 36,000  Level FlightAware Transoceanic
Tue 09:58:00 AM 59.8659 -28.0123 279° West 516 594 36,000  Level FlightAware Transoceanic
Tue 09:59:00 AM 59.8869 -28.2952 278° West 516 594 36,000  Level FlightAware Transoceanic
Tue 10:00:00 AM 59.9073 -28.5785 278° West 516 594 36,000  Level FlightAware Transoceanic
Tue 10:01:00 AM 59.9270 -28.8622 278° West 516 594 36,000  Level FlightAware Transoceanic
Tue 10:02:00 AM 59.9462 -29.1462 278° West 516 594 36,000  Level FlightAware Transoceanic
Tue 10:03:00 AM 59.9647 -29.4305 277° West 516 594 36,000  Level FlightAware Transoceanic
Tue 10:04:00 AM 59.9827 -29.7151 277° West 516 594 36,000  Level FlightAware Transoceanic
Tue 10:05:00 AM 59.9986 -29.9773 277° West  Level FlightAware Approximate
Tue 10:06:00 AM 60.0140 -30.2398 277° West  Level FlightAware Approximate
Tue 10:07:00 AM 60.0294 -30.2098 286° West  Level FlightAware Approximate
Tue 10:08:00 AM 60.0645 -30.4640 286° West  Level FlightAware Approximate
Tue 10:09:00 AM 60.0991 -30.7188 285° West  Level FlightAware Approximate
Tue 10:10:00 AM 60.1332 -30.9742 285° West  Level FlightAware Approximate
Tue 10:11:00 AM 60.1668 -31.2300 285° West  Level FlightAware Approximate
Tue 10:12:00 AM 60.1999 -31.4864 285° West  Level FlightAware Approximate
Tue 10:13:00 AM 60.2326 -31.7433 284° West  Level FlightAware Approximate
Tue 10:14:00 AM 60.2647 -32.0007 284° West  Level FlightAware Approximate
Tue 10:15:00 AM 60.2963 -32.2586 284° West  Level FlightAware Approximate
Tue 10:16:00 AM 60.3275 -32.5170 284° West  Level FlightAware Approximate
Tue 10:17:00 AM 60.3581 -32.7758 284° West  Level FlightAware Approximate
Tue 10:18:00 AM 60.3882 -33.0352 283° West  Level FlightAware Approximate
Tue 10:19:00 AM 60.4178 -33.2951 283° West  Level FlightAware Approximate
Tue 10:20:00 AM 60.4470 -33.5554 283° West  Level FlightAware Approximate
Tue 10:21:00 AM 60.4756 -33.8161 283° West  Level FlightAware Approximate
Tue 10:22:00 AM 60.5037 -34.0774 282° West  Level FlightAware Approximate
Tue 10:23:00 AM 60.5314 -34.3390 282° West  Level FlightAware Approximate
Tue 10:24:00 AM 60.5587 -34.6010 282° West  Level FlightAware Approximate
Tue 10:25:00 AM 60.5855 -34.8635 282° West  Level FlightAware Approximate
Tue 10:26:00 AM 60.6118 -35.1264 282° West  Level FlightAware Approximate
Tue 10:27:00 AM 60.6376 -35.3897 281° West  Level FlightAware Approximate
Tue 10:28:00 AM 60.6628 -35.6534 281° West  Level FlightAware Approximate
Tue 10:29:00 AM 60.6875 -35.9176 281° West  Level FlightAware Approximate
Tue 10:30:00 AM 60.7117 -36.1821 281° West  Level FlightAware Approximate
Tue 10:31:00 AM 60.7354 -36.4470 280° West  Level FlightAware Approximate
Tue 10:32:00 AM 60.7586 -36.7124 280° West  Level FlightAware Approximate
Tue 10:33:00 AM 60.7812 -36.9781 280° West  Level FlightAware Approximate
Tue 10:34:00 AM 60.8033 -37.2442 280° West  Level FlightAware Approximate
Tue 10:35:00 AM 60.8249 -37.5106 280° West  Level FlightAware Approximate
Tue 10:36:00 AM 60.8460 -37.7774 279° West  Level FlightAware Approximate
Tue 10:37:00 AM 60.8665 -38.0446 279° West  Level FlightAware Approximate
Tue 10:38:00 AM 60.8865 -38.3120 279° West  Level FlightAware Approximate
Tue 10:39:00 AM 60.9060 -38.5798 279° West  Level FlightAware Approximate
Tue 10:40:00 AM 60.9249 -38.8480 278° West  Level FlightAware Approximate
Tue 10:41:00 AM 60.9433 -39.1164 278° West  Level FlightAware Approximate
Tue 10:42:00 AM 60.9612 -39.3852 278° West  Level FlightAware Approximate
Tue 10:43:00 AM 60.9785 -39.6543 278° West  Level FlightAware Approximate
Tue 10:44:00 AM 60.9953 -39.9236 277° West  Level FlightAware Approximate
Tue 10:45:00 AM 61.0262 -40.1871 286° West  Level FlightAware Approximate
Tue 10:46:00 AM 61.0623 -40.4487 286° West  Level FlightAware Approximate
Tue 10:47:00 AM 61.0980 -40.7109 286° West  Level FlightAware Approximate
Tue 10:48:00 AM 61.1331 -40.9737 286° West  Level FlightAware Approximate
Tue 10:49:00 AM 61.1677 -41.2370 285° West  Level FlightAware Approximate
Tue 10:50:00 AM 61.2018 -41.5010 285° West  Level FlightAware Approximate
Tue 10:51:00 AM 61.2354 -41.7655 285° West  Level FlightAware Approximate
Tue 10:52:00 AM 61.2685 -42.0306 285° West  Level FlightAware Approximate
Tue 10:53:00 AM 61.3010 -42.2962 284° West  Level FlightAware Approximate
Tue 10:54:00 AM 61.3330 -42.5618 284° West  Level FlightAware Approximate
Tue 10:55:00 AM 61.3644 -42.8280 284° West  Level FlightAware Approximate
Tue 10:56:00 AM 61.3954 -43.0947 284° West  Level FlightAware Approximate
Tue 10:57:00 AM 61.4258 -43.3620 283° West  Level FlightAware Approximate
Tue 10:58:00 AM 61.4557 -43.6297 283° West  Level FlightAware Approximate
Tue 10:59:00 AM 61.4850 -43.8980 283° West  Level FlightAware Approximate
Tue 11:00:00 AM 61.5138 -44.1668 283° West  Level FlightAware Approximate
Tue 11:01:00 AM 61.5421 -44.4360 283° West  Level FlightAware Approximate
Tue 11:02:00 AM 61.5699 -44.7058 282° West  Level FlightAware Approximate
Tue 11:03:00 AM 61.5971 -44.9760 282° West  Level FlightAware Approximate
Tue 11:04:00 AM 61.6238 -45.2467 282° West  Level FlightAware Approximate
Tue 11:05:00 AM 61.6500 -45.5179 282° West  Level FlightAware Approximate
Tue 11:06:00 AM 61.6756 -45.7895 281° West  Level FlightAware Approximate
Tue 11:07:00 AM 61.7007 -46.0615 281° West  Level FlightAware Approximate
Tue 11:08:00 AM 61.7253 -46.3340 281° West  Level FlightAware Approximate
Tue 11:09:00 AM 61.7493 -46.6070 281° West  Level FlightAware Approximate
Tue 11:10:00 AM 61.7727 -46.8803 280° West  Level FlightAware Approximate
Tue 11:11:00 AM 61.7957 -47.1541 280° West  Level FlightAware Approximate
Tue 11:12:00 AM 61.8180 -47.4282 280° West  Level FlightAware Approximate
Tue 11:13:00 AM 61.8399 -47.7028 280° West  Level FlightAware Approximate
Tue 11:14:00 AM 61.8611 -47.9777 279° West  Level FlightAware Approximate
Tue 11:15:00 AM 61.8819 -48.2531 279° West  Level FlightAware Approximate
Tue 11:16:00 AM 61.9020 -48.5288 279° West  Level FlightAware Approximate
Tue 11:16:29 AM 62.0230 -50.1430 279° West 514 592 36,000  Level FlightAware ADS-B
Tue 11:17:00 AM 61.9217 -48.8048 279° West  Level FlightAware Approximate
Tue 11:17:10 AM 62.0290 -50.3540 274° West 513 590 36,000  Level FlightAware ADS-B
Tue 11:17:50 AM 62.0350 -50.5500 274° West 514 592 36,000  Level FlightAware ADS-B
Tue 11:18:40 AM 62.0430 -50.8040 274° West 514 592 36,000  Level FlightAware ADS-B
Tue 11:19:17 AM 62.0470 -50.9630 273° West 514 592 36,000  Level FlightAware ADS-B
Tue 11:20:05 AM 62.0520 -51.1700 273° West 514 592 36,000  Level FlightAware ADS-B
Tue 11:20:29 AM 62.0540 -51.2740 272° West 514 592 36,000  Level FlightAware ADS-B
Tue 11:21:17 AM 62.0590 -51.4800 273° West 514 592 36,000  Level FlightAware ADS-B
Tue 11:22:18 AM 62.0730 -51.9100 274° West 518 596 36,000  Level FlightAware ADS-B
Tue 11:22:58 AM 62.0750 -52.0840 271° West 518 596 36,000  Level FlightAware ADS-B
Tue 11:23:46 AM 62.0790 -52.2930 272° West 518 596 36,000  Level FlightAware ADS-B
Tue 11:24:22 AM 62.0810 -52.4490 272° West 518 596 36,000  Level FlightAware ADS-B
Tue 11:25:10 AM 62.0850 -52.6580 272° West 518 596 36,000  Level FlightAware ADS-B
Tue 11:25:46 AM 62.0870 -52.8150 272° West 518 596 36,000  Level FlightAware ADS-B
Tue 11:26:28 AM 62.0940 -53.1660 273° West 519 597 36,000  Level FlightAware ADS-B
Tue 11:27:16 AM 62.0960 -53.3750 271° West 519 597 36,000  Level FlightAware ADS-B
Tue 11:27:53 AM 62.0970 -53.5370 271° West 519 597 36,000  Level FlightAware ADS-B
Tue 11:28:39 AM 62.0990 -53.7370 271° West 519 597 36,000  Level FlightAware ADS-B
Tue 11:29:15 AM 62.1000 -53.8940 271° West 519 597 36,000  Level FlightAware ADS-B
Tue 11:30:07 AM 62.1020 -54.1210 271° West 519 597 36,000  Level FlightAware ADS-B
Tue 11:30:43 AM 62.1030 -54.2780 271° West 519 597 36,000  Level FlightAware ADS-B
Tue 11:31:20 AM 62.1040 -54.4400 271° West 519 597 36,000  Level FlightAware ADS-B
Tue 11:32:19 AM 62.1070 -54.6970 272° West 519 597 36,000  Level FlightAware ADS-B
Tue 11:33:08 AM 62.1080 -54.9110 271° West 519 597 36,000  Level FlightAware ADS-B
Tue 11:33:44 AM 62.1090 -55.0680 271° West 519 597 36,000  Level FlightAware ADS-B
Tue 11:34:32 AM 62.1110 -55.2770 271° West 519 597 36,000  Level FlightAware ADS-B
Tue 11:35:06 AM 62.1120 -55.4250 271° West 519 597 36,000  Level FlightAware ADS-B
Tue 11:35:55 AM 62.1140 -55.6390 271° West 519 597 36,000  Level FlightAware ADS-B
Tue 11:36:51 AM 62.1167 -56.3167 271° West 520 598 36,000  Level Gander Center
Tue 11:37:51 AM 62.1167 -56.6000 270° West 520 598 36,000  Level Gander Center
Tue 11:38:51 AM 62.1167 -56.9167 270° West 510 587 36,000  Level Gander Center
Tue 11:39:51 AM 62.1000 -57.2333 264° West 520 598 36,000  Level Gander Center
Tue 11:40:51 AM 62.1000 -57.5667 270° West 530 610 36,000  Level Gander Center
Tue 11:41:51 AM 62.0833 -57.8500 263° West 520 598 36,000  Level Gander Center
Tue 11:42:51 AM 62.0833 -58.1667 270° West 520 598 36,000  Level Gander Center
Tue 11:43:51 AM 62.0667 -58.4833 264° West 520 598 36,000  Level Gander Center
Tue 11:44:51 AM 62.0500 -58.7667 263° West 520 598 36,000  Level Gander Center
Tue 11:45:51 AM 62.0667 -59.0500 277° West 520 598 36,000  Level Gander Center
Tue 11:46:33 AM 62.0333 -59.2167 247° West 520 598 36,000  Level Montreal Center
Tue 11:47:33 AM 62.0333 -59.5500 270° West 520 598 36,000  Level Montreal Center
Tue 11:48:33 AM 62.0333 -59.8333 270° West 520 598 36,000  Level Montreal Center
Tue 11:49:33 AM 61.9833 -60.1167 250° West 510 587 36,000  Level Montreal Center
Tue 11:50:33 AM 61.9333 -60.4000 250° West 510 587 36,000  Level Montreal Center
Tue 11:51:33 AM 61.9000 -60.7000 257° West 510 587 36,000  Level Montreal Center
Tue 11:52:33 AM 61.8500 -60.9833 250° West 520 598 36,000  Level Montreal Center
Tue 11:53:33 AM 61.8000 -61.2167 246° West 520 598 36,000  Level Montreal Center
Tue 11:54:33 AM 61.7667 -61.5000 256° West 510 587 36,000  Level Montreal Center
Tue 11:55:51 AM 61.7000 -61.9500 253° West 520 598 36,000  Level Gander Center
Tue 11:56:51 AM 61.6333 -62.2667 246° West 520 598 36,000  Level Gander Center
Tue 11:57:51 AM 61.5833 -62.5667 251° West 520 598 36,000  Level Gander Center
Tue 11:58:51 AM 61.5333 -62.8500 250° West 520 598 36,000  Level Gander Center
Tue 11:59:33 AM 61.5167 -62.9333 247° West 520 598 36,000  Level Montreal Center
Tue 12:00:33 PM 61.4500 -63.2333 245° Southwest 520 598 36,000  Level Montreal Center
Tue 12:01:33 PM 61.4167 -63.5000 255° West 510 587 36,000  Level Montreal Center
Tue 12:02:33 PM 61.3500 -63.8167 246° West 520 598 36,000  Level Montreal Center
Tue 12:03:33 PM 61.2667 -64.0500 233° Southwest 520 598 36,000  Level Montreal Center
Tue 12:04:51 PM 61.1500 -64.3833 234° Southwest 510 587 36,000  Level Gander Center
Tue 12:05:33 PM 61.0667 -64.4833 210° Southwest 510 587 36,000  Level Montreal Center
Tue 12:06:33 PM 60.9833 -64.6833 229° Southwest 500 575 36,000  Level Montreal Center
Tue 12:07:33 PM 60.8833 -64.8833 224° Southwest 500 575 36,000  Level Montreal Center
Tue 12:08:33 PM 60.8000 -65.1000 232° Southwest 500 575 36,000  Level Montreal Center
Tue 12:09:33 PM 60.7000 -65.3000 224° Southwest 500 575 36,000  Level Montreal Center
Tue 12:10:33 PM 60.6000 -65.5000 225° Southwest 500 575 36,000  Level Montreal Center
Tue 12:11:33 PM 60.5000 -65.7000 225° Southwest 500 575 36,000  Level Montreal Center
Tue 12:12:33 PM 60.4000 -65.9167 227° Southwest 500 575 36,000  Level Montreal Center
Tue 12:13:33 PM 60.3167 -66.1000 227° Southwest 500 575 36,000  Level Montreal Center
Tue 12:14:33 PM 60.2167 -66.3000 225° Southwest 500 575 36,000  Level Montreal Center
Tue 12:15:33 PM 60.1167 -66.5333 229° Southwest 500 575 36,000  Level Montreal Center
Tue 12:16:33 PM 60.0000 -66.7333 221° Southwest 500 575 36,000  Level Montreal Center
Tue 12:17:33 PM 59.9167 -66.9333 230° Southwest 500 575 36,000  Level Montreal Center
Tue 12:18:51 PM 59.7833 -67.2333 229° Southwest 500 575 36,000  Level Gander Center
Tue 12:19:33 PM 59.7167 -67.3167 212° Southwest 500 575 36,000  Level Montreal Center
Tue 12:20:33 PM 59.6167 -67.5167 225° Southwest 490 564 36,000  Level Montreal Center
Tue 12:21:33 PM 59.5333 -67.7000 228° Southwest 500 575 36,000  Level Montreal Center
Tue 12:22:33 PM 59.4167 -67.8833 219° Southwest 500 575 36,000  Level Montreal Center
Tue 12:23:33 PM 59.3333 -68.0833 231° Southwest 500 575 36,000  Level Montreal Center
Tue 12:24:33 PM 59.2167 -68.2667 219° Southwest 490 564 36,000  Level Montreal Center
Tue 12:25:33 PM 59.1333 -68.4500 229° Southwest 490 564 36,000 100 Level Montreal Center
Tue 12:26:33 PM 59.0167 -68.6333 219° Southwest 490 564 36,200 250 Climbing Montreal Center
Tue 12:27:33 PM 58.9167 -68.8167 223° Southwest 480 552 36,500 350 Climbing Montreal Center
Tue 12:28:33 PM 58.8333 -69.0000 229° Southwest 490 564 36,900 400 Climbing Montreal Center
Tue 12:29:33 PM 58.7333 -69.1833 224° Southwest 490 564 37,300 400 Climbing Montreal Center
Tue 12:30:33 PM 58.6167 -69.3333 214° Southwest 490 564 37,700 350 Climbing Montreal Center
Tue 12:31:33 PM 58.5333 -69.5167 229° Southwest 500 575 38,000 150 Climbing Montreal Center
Tue 12:32:33 PM 58.4167 -69.7000 219° Southwest 500 575 38,000  Level Montreal Center
Tue 12:33:33 PM 58.3333 -69.8667 226° Southwest 490 564 38,000  Level Montreal Center
Tue 12:34:33 PM 58.2167 -70.0500 220° Southwest 490 564 38,000  Level Montreal Center
Tue 12:35:33 PM 58.1167 -70.2667 229° Southwest 490 564 38,000  Level Montreal Center
Tue 12:36:33 PM 58.0167 -70.4333 221° Southwest 490 564 38,000  Level Montreal Center
Tue 12:37:33 PM 57.9167 -70.5667 215° Southwest 480 552 38,000  Level Montreal Center
Tue 12:38:33 PM 57.8167 -70.7500 224° Southwest 480 552 38,000  Level Montreal Center
Tue 12:39:33 PM 57.7167 -70.9167 222° Southwest 480 552 38,000  Level Montreal Center
Tue 12:40:33 PM 57.6167 -71.0833 222° Southwest 480 552 38,000  Level Montreal Center
Tue 12:41:33 PM 57.5333 -71.2667 230° Southwest 480 552 38,000  Level Montreal Center
Tue 12:42:33 PM 57.4167 -71.4333 218° Southwest 480 552 38,000  Level Montreal Center
Tue 12:43:33 PM 57.3167 -71.5667 216° Southwest 480 552 38,000  Level Montreal Center
Tue 12:44:33 PM 57.2167 -71.7333 222° Southwest 480 552 38,000  Level Montreal Center
Tue 12:45:33 PM 57.1167 -71.9333 227° Southwest 480 552 38,000  Level Montreal Center
Tue 12:46:33 PM 57.0000 -72.0667 212° Southwest 480 552 38,000  Level Montreal Center
Tue 12:47:33 PM 56.9000 -72.2333 222° Southwest 480 552 38,000  Level Montreal Center
Tue 12:48:33 PM 56.8000 -72.4000 222° Southwest 480 552 38,000  Level Montreal Center
Tue 12:49:33 PM 56.7167 -72.5500 225° Southwest 470 541 38,000  Level Montreal Center
Tue 12:50:33 PM 56.6000 -72.6833 212° Southwest 470 541 38,000  Level Montreal Center
Tue 12:51:33 PM 56.5000 -72.8500 223° Southwest 470 541 38,000  Level Montreal Center
Tue 12:52:33 PM 56.4000 -73.0167 223° Southwest 460 529 38,000  Level Montreal Center
Tue 12:53:33 PM 56.3000 -73.1333 213° Southwest 460 529 38,000  Level Montreal Center
Tue 12:54:33 PM 56.2000 -73.3000 223° Southwest 460 529 38,000  Level Montreal Center
Tue 12:55:33 PM 56.1167 -73.4500 225° Southwest 450 518 38,000  Level Montreal Center
Tue 12:56:33 PM 56.0167 -73.5833 217° Southwest 450 518 38,000  Level Montreal Center
Tue 12:57:33 PM 55.9167 -73.7333 220° Southwest 460 529 38,000  Level Montreal Center
Tue 12:58:33 PM 55.8167 -73.9000 223° Southwest 460 529 38,000  Level Montreal Center
Tue 12:59:33 PM 55.7167 -74.0167 213° Southwest 460 529 38,000  Level Montreal Center
Tue 01:00:33 PM 55.6167 -74.1667 220° Southwest 450 518 38,000  Level Montreal Center
Tue 01:01:33 PM 55.5167 -74.3000 217° Southwest 450 518 38,000  Level Montreal Center
Tue 01:02:33 PM 55.4167 -74.4500 220° Southwest 450 518 38,000  Level Montreal Center
Tue 01:03:33 PM 55.3167 -74.5667 214° Southwest 460 529 38,000  Level Montreal Center
Tue 01:04:33 PM 55.2167 -74.7167 221° Southwest 460 529 38,000  Level Montreal Center
Tue 01:05:33 PM 55.1167 -74.8500 217° Southwest 450 518 38,000  Level Montreal Center
Tue 01:06:33 PM 55.0167 -75.0000 221° Southwest 450 518 38,000  Level Montreal Center
Tue 01:07:33 PM 54.9167 -75.1500 221° Southwest 450 518 38,000  Level Montreal Center
Tue 01:08:33 PM 54.8167 -75.2667 214° Southwest 440 506 38,000  Level Montreal Center
Tue 01:09:33 PM 54.7167 -75.4167 221° Southwest 440 506 38,000  Level Montreal Center
Tue 01:10:33 PM 54.6167 -75.5333 214° Southwest 440 506 38,000  Level Montreal Center
Tue 01:11:33 PM 54.5167 -75.6667 218° Southwest 450 518 38,000  Level Montreal Center
Tue 01:12:33 PM 54.4333 -75.7833 219° Southwest 440 506 38,000  Level Montreal Center
Tue 01:13:33 PM 54.3333 -75.9000 214° Southwest 440 506 38,000  Level Montreal Center
Tue 01:14:33 PM 54.2333 -76.0500 221° Southwest 440 506 38,000  Level Montreal Center
Tue 01:15:32 PM 54.1333 -76.1667 214° Southwest 440 506 38,000  Level Montreal Center
Tue 01:16:32 PM 54.0333 -76.3000 218° Southwest 440 506 38,000  Level Montreal Center
Tue 01:17:32 PM 53.9333 -76.4167 214° Southwest 450 518 38,000  Level Montreal Center
Tue 01:18:32 PM 53.8333 -76.5667 222° Southwest 450 518 38,000  Level Montreal Center
Tue 01:19:32 PM 53.7500 -76.6833 220° Southwest 450 518 38,000  Level Montreal Center
Tue 01:20:32 PM 53.6333 -76.8500 220° Southwest 440 506 38,000  Level Montreal Center
Tue 01:21:32 PM 53.5333 -76.9833 218° Southwest 450 518 38,000  Level Montreal Center
Tue 01:22:32 PM 53.4500 -77.1167 224° Southwest 450 518 38,000  Level Montreal Center
Tue 01:23:32 PM 53.3500 -77.2667 222° Southwest 450 518 38,000  Level Montreal Center
Tue 01:24:32 PM 53.2500 -77.3667 211° Southwest 450 518 38,000  Level Montreal Center
Tue 01:25:32 PM 53.1500 -77.5000 219° Southwest 450 518 38,000  Level Montreal Center
Tue 01:26:32 PM 53.0500 -77.6167 215° Southwest 450 518 38,000  Level Montreal Center
Tue 01:27:32 PM 52.9333 -77.7500 215° Southwest 450 518 38,000  Level Montreal Center
Tue 01:28:32 PM 52.8333 -77.8667 215° Southwest 450 518 38,000  Level Montreal Center
Tue 01:29:32 PM 52.7333 -78.0000 219° Southwest 450 518 38,000  Level Montreal Center
Tue 01:30:32 PM 52.6333 -78.1000 211° Southwest 450 518 38,000  Level Montreal Center
Tue 01:31:32 PM 52.5333 -78.2333 219° Southwest 460 529 38,000  Level Montreal Center
Tue 01:32:32 PM 52.4167 -78.3333 208° Southwest 450 518 38,000  Level Montreal Center
Tue 01:33:32 PM 52.3167 -78.4667 219° Southwest 460 529 38,000  Level Montreal Center
Tue 01:34:32 PM 52.2167 -78.5667 212° Southwest 460 529 38,000  Level Montreal Center
Tue 01:35:32 PM 52.1167 -78.7000 219° Southwest 460 529 38,000  Level Montreal Center
Tue 01:36:32 PM 52.0167 -78.8333 219° Southwest 460 529 38,000  Level Montreal Center
Tue 01:37:32 PM 51.8833 -78.9333 205° Southwest 460 529 38,000  Level Montreal Center
Tue 01:38:32 PM 51.7833 -79.0667 220° Southwest 460 529 38,000  Level Montreal Center
Tue 01:39:32 PM 51.6833 -79.2000 220° Southwest 460 529 38,000  Level Montreal Center
Tue 01:40:32 PM 51.5833 -79.3000 212° Southwest 460 529 38,000  Level Montreal Center
Tue 01:41:32 PM 51.4667 -79.4167 212° Southwest 460 529 38,000  Level Montreal Center
Tue 01:42:32 PM 51.3667 -79.5167 212° Southwest 460 529 38,000  Level Montreal Center
Tue 01:43:32 PM 51.2667 -79.6500 220° Southwest 460 529 38,000  Level Montreal Center
Tue 01:44:32 PM 51.1500 -79.7833 216° Southwest 460 529 38,000  Level Montreal Center
Tue 01:45:32 PM 51.0500 -79.8667 208° Southwest 460 529 38,000  Level Montreal Center
Tue 01:46:32 PM 50.9500 -80.0000 220° Southwest 460 529 38,000  Level Montreal Center
Tue 01:47:32 PM 50.8500 -80.1000 212° Southwest 460 529 38,000  Level Montreal Center
Tue 01:48:32 PM 50.7167 -80.2167 209° Southwest 460 529 38,000  Level Montreal Center
Tue 01:49:32 PM 50.6167 -80.3500 220° Southwest 460 529 38,000  Level Montreal Center
Tue 01:50:32 PM 50.5167 -80.4333 208° Southwest 460 529 38,000  Level Montreal Center
Tue 01:51:32 PM 50.4000 -80.5667 216° Southwest 460 529 38,000  Level Montreal Center
Tue 01:52:32 PM 50.3167 -80.6500 213° Southwest 460 529 38,000  Level Montreal Center
Tue 01:53:32 PM 50.2000 -80.7833 216° Southwest 460 529 38,000  Level Montreal Center
Tue 01:54:32 PM 50.0833 -80.8667 205° Southwest 450 518 38,000  Level Montreal Center
Tue 01:55:32 PM 49.9833 -80.9833 217° Southwest 460 529 38,000  Level Montreal Center
Tue 01:56:32 PM 49.8833 -81.1167 221° Southwest 450 518 38,000  Level Montreal Center
Tue 01:57:32 PM 49.7667 -81.2000 205° Southwest 460 529 38,000  Level Montreal Center
Tue 01:58:32 PM 49.6667 -81.3167 217° Southwest 450 518 38,000  Level Montreal Center
Tue 01:59:32 PM 49.5500 -81.4333 213° Southwest 450 518 38,000  Level Montreal Center
Tue 02:00:32 PM 49.4500 -81.5333 213° Southwest 450 518 38,000  Level Montreal Center
Tue 02:01:32 PM 49.3500 -81.6500 217° Southwest 450 518 38,000  Level Montreal Center
Tue 02:02:32 PM 49.2333 -81.7333 205° Southwest 450 518 38,000  Level Montreal Center
Tue 02:03:32 PM 49.1333 -81.8333 213° Southwest 450 518 38,000  Level Montreal Center
Tue 02:04:32 PM 49.0333 -81.9500 217° Southwest 450 518 38,000  Level Montreal Center
Tue 02:05:32 PM 48.9167 -82.0333 205° Southwest 450 518 38,000  Level Montreal Center
Tue 02:06:32 PM 48.8167 -82.1500 218° Southwest 450 518 38,000  Level Montreal Center
Tue 02:07:32 PM 48.7000 -82.2333 205° Southwest 450 518 38,000  Level Montreal Center
Tue 02:08:32 PM 48.6000 -82.3500 218° Southwest 440 506 38,000  Level Montreal Center
Tue 02:09:32 PM 48.5167 -82.4333 214° Southwest 440 506 38,000  Level Montreal Center
Tue 02:15:03 PM 47.9350 -82.9630 214° Southwest 437 503 38,000  Level FlightAware ADS-B
Tue 02:15:43 PM 47.8670 -83.0250 211° Southwest 437 503 38,000  Level FlightAware ADS-B
Tue 02:16:27 PM 47.7920 -83.0930 211° Southwest 437 503 38,000  Level FlightAware ADS-B
Tue 02:17:07 PM 47.7230 -83.1570 212° Southwest 438 504 38,000  Level FlightAware ADS-B
Tue 02:17:51 PM 47.6460 -83.2270 211° Southwest 439 505 38,000  Level FlightAware ADS-B
Tue 02:18:32 PM 47.5770 -83.2890 211° Southwest 439 505 38,000  Level FlightAware ADS-B
Tue 02:19:13 PM 47.5060 -83.3530 211° Southwest 439 505 38,000  Level FlightAware ADS-B
Tue 02:19:57 PM 47.4280 -83.4230 211° Southwest 440 506 38,000  Level FlightAware ADS-B
Tue 02:20:59 PM 47.3200 -83.5190 211° Southwest 442 509 38,000  Level FlightAware ADS-B
Tue 02:21:39 PM 47.2510 -83.5810 211° Southwest 444 511 38,000  Level FlightAware ADS-B
Tue 02:22:19 PM 47.1800 -83.6440 211° Southwest 445 512 38,000  Level FlightAware ADS-B
Tue 02:23:05 PM 47.1000 -83.7160 212° Southwest 445 512 38,000  Level FlightAware ADS-B
Tue 02:23:45 PM 47.0290 -83.7780 211° Southwest 445 512 38,000  Level FlightAware ADS-B
Tue 02:24:29 PM 46.9510 -83.8470 211° Southwest 448 516 38,000  Level FlightAware ADS-B
Tue 02:25:09 PM 46.8800 -83.9090 211° Southwest 449 517 38,000  Level FlightAware ADS-B
Tue 02:25:49 PM 46.8080 -83.9720 211° Southwest 449 517 38,000  Level FlightAware ADS-B
Tue 02:26:35 PM 46.7260 -84.0430 211° Southwest 450 518 38,000  Level FlightAware ADS-B
Tue 02:27:16 PM 46.6520 -84.1080 211° Southwest 449 517 38,000  Level FlightAware ADS-B
Tue 02:28:00 PM 46.5740 -84.1750 211° Southwest 451 519 38,000  Level FlightAware ADS-B
Tue 02:28:40 PM 46.5040 -84.2360 211° Southwest 451 519 38,000  Level FlightAware ADS-B
Tue 02:29:20 PM 46.4300 -84.2970 210° Southwest 457 526 38,000  Level FlightAware ADS-B
Tue 02:30:02 PM 46.3430 -84.3330 196° South 474 545 38,000  Level FlightAware ADS-B
Tue 02:30:46 PM 46.2520 -84.3690 195° South 472 543 38,000  Level FlightAware ADS-B
Tue 02:31:26 PM 46.1680 -84.4010 195° South 474 545 38,000  Level FlightAware ADS-B
Tue 02:32:10 PM 46.0720 -84.4340 193° South 476 548 38,000  Level FlightAware ADS-B
Tue 02:32:52 PM 45.9820 -84.4640 193° South 477 549 38,000  Level FlightAware ADS-B
Tue 02:33:36 PM 45.8860 -84.4960 193° South 478 550 38,000  Level FlightAware ADS-B
Tue 02:34:12 PM 45.8090 -84.5220 193° South 479 551 38,000  Level FlightAware ADS-B
Tue 02:34:52 PM 45.7250 -84.5510 194° South 480 552 38,000  Level FlightAware ADS-B
Tue 02:35:32 PM 45.6370 -84.5810 193° South 480 552 38,000  Level FlightAware ADS-B
Tue 02:36:12 PM 45.5500 -84.6100 193° South 480 552 38,000  Level FlightAware ADS-B
Tue 02:36:52 PM 45.4640 -84.6390 193° South 481 554 38,000  Level FlightAware ADS-B
Tue 02:37:32 PM 45.3760 -84.6680 193° South 482 555 38,000  Level FlightAware ADS-B
Tue 02:38:12 PM 45.2890 -84.6980 194° South 483 556 38,000  Level FlightAware ADS-B
Tue 02:38:57 PM 45.1930 -84.7300 193° South 483 556 38,000  Level FlightAware ADS-B
Tue 02:39:38 PM 45.1030 -84.7600 193° South 484 557 38,000 -212 Level FlightAware ADS-B
Tue 02:40:22 PM 45.0090 -84.7910 193° South 478 550 37,700 -714 Descending FlightAware ADS-B
Tue 02:41:02 PM 44.9220 -84.8190 193° South 480 552 37,000 -1,000 Descending FlightAware ADS-B
Tue 02:41:34 PM 44.8530 -84.8420 193° South 478 550 36,500 -789 Descending FlightAware ADS-B
Tue 02:42:18 PM 44.7590 -84.8730 193° South 476 548 36,000 -818 Descending FlightAware ADS-B
Tue 02:43:02 PM 44.6690 -84.9020 193° South 476 548 35,300 -857 Descending FlightAware ADS-B
Tue 02:43:35 PM 44.5930 -84.9270 193° South 473 544 34,900 -857 Descending FlightAware ADS-B
Tue 02:44:19 PM 44.5010 -84.9570 193° South 476 548 34,200 -1,143 Descending FlightAware ADS-B
Tue 02:44:59 PM 44.4130 -84.9850 193° South 483 556 33,300 -1,244 Descending FlightAware ADS-B
Tue 02:45:41 PM 44.3210 -85.0150 193° South 488 562 32,500 -951 Descending FlightAware ADS-B
Tue 02:46:21 PM 44.2350 -85.0430 193° South 487 560 32,000 -349 Descending FlightAware ADS-B
Tue 02:47:07 PM 44.1340 -85.0750 193° South 479 551 32,000  Level FlightAware ADS-B
Tue 02:47:47 PM 44.0470 -85.1030 193° South 483 556 32,000  Level FlightAware ADS-B
Tue 02:48:29 PM 43.9560 -85.1320 193° South 488 562 32,000  Level FlightAware ADS-B
Tue 02:49:13 PM 43.8590 -85.1630 193° South 494 568 32,000  Level FlightAware ADS-B
Tue 02:49:54 PM 43.7670 -85.1920 193° South 499 574 32,000  Level FlightAware ADS-B
Tue 02:50:37 PM 43.6780 -85.2490 205° Southwest 484 557 32,000  Level FlightAware ADS-B
Tue 02:51:17 PM 43.6180 -85.3360 226° Southwest 475 547 32,000  Level FlightAware ADS-B
Tue 02:51:59 PM 43.5560 -85.4330 229° Southwest 474 545 32,000 -141 Level FlightAware ADS-B
Tue 02:52:42 PM 43.4960 -85.5280 229° Southwest 466 536 31,800 -698 Descending FlightAware ADS-B
Tue 02:53:25 PM 43.4340 -85.6240 228° Southwest 464 534 31,000 -1,301 Descending FlightAware ADS-B
Tue 02:54:05 PM 43.3770 -85.7140 229° Southwest 470 541 30,000 -1,482 Descending FlightAware ADS-B
Tue 02:54:50 PM 43.3130 -85.8120 228° Southwest 458 527 28,900 -1,590 Descending FlightAware ADS-B
Tue 02:55:28 PM 43.2650 -85.8870 229° Southwest 454 522 27,800 -1,671 Descending FlightAware ADS-B
Tue 02:56:09 PM 43.2050 -85.9800 229° Southwest 444 511 26,700 -1,482 Descending FlightAware ADS-B
Tue 02:56:53 PM 43.1450 -86.0720 228° Southwest 433 498 25,700 -1,350 Descending FlightAware ADS-B
Tue 02:57:29 PM 43.0970 -86.1450 228° Southwest 427 491 24,900 -1,395 Descending FlightAware ADS-B
Tue 02:58:19 PM 43.0310 -86.2450 228° Southwest 416 479 23,700 -1,533 Descending FlightAware ADS-B
Tue 02:58:59 PM 42.9830 -86.3200 229° Southwest 414 476 22,600 -1,636 Descending FlightAware ADS-B
Tue 02:59:36 PM 42.9360 -86.3910 228° Southwest 407 468 21,600 -2,000 Descending FlightAware ADS-B
Tue 03:00:17 PM 42.8850 -86.4730 230° Southwest 397 457 20,000 -1,926 Descending FlightAware ADS-B
Tue 03:00:57 PM 42.8420 -86.5520 233° Southwest 392 451 19,000 -1,535 Descending FlightAware ADS-B
Tue 03:01:43 PM 42.7920 -86.6410 233° Southwest 388 447 17,800 -1,554 Descending FlightAware ADS-B
Tue 03:02:49 PM 42.7180 -86.7680 232° Southwest 380 437 16,100 -1,472 Descending FlightAware ADS-B
Tue 03:03:29 PM 42.6770 -86.8390 232° Southwest 375 432 15,200 -1,214 Descending FlightAware ADS-B
Tue 03:04:13 PM 42.6290 -86.9240 233° Southwest 367 422 14,400 -1,071 Descending FlightAware ADS-B
Tue 03:04:53 PM 42.5880 -86.9940 232° Southwest 361 415 13,700 -1,129 Descending FlightAware ADS-B
Tue 03:05:38 PM 42.5420 -87.0740 232° Southwest 360 414 12,800 -1,256 Descending FlightAware ADS-B
Tue 03:06:19 PM 42.4990 -87.1480 232° Southwest 356 410 11,900 -1,259 Descending FlightAware ADS-B
Tue 03:06:59 PM 42.4590 -87.2170 232° Southwest 351 404 11,100 -1,317 Descending FlightAware ADS-B
Tue 03:07:41 PM 42.4170 -87.2880 231° Southwest 351 404 10,100 -714 Descending FlightAware ADS-B
Tue 03:08:23 PM 42.3840 -87.3700 241° Southwest 345 397 10,100  Level FlightAware ADS-B
Tue 03:09:03 PM 42.3620 -87.4500 250° West 346 398 10,100  Level FlightAware ADS-B
Tue 03:09:47 PM 42.3320 -87.5370 245° Southwest 353 406 10,100  Level FlightAware ADS-B
Tue 03:10:23 PM 42.2890 -87.5890 222° Southwest 347 399 10,100  Level FlightAware ADS-B
Tue 03:10:59 PM 42.2460 -87.6330 217° Southwest 307 353 10,100 -73 Level FlightAware ADS-B
Tue 03:11:45 PM 42.2010 -87.6800 218° Southwest 296 341 10,000 -73 Descending FlightAware ADS-B
Tue 03:12:21 PM 42.1590 -87.7230 217° Southwest 260 299 10,000 -277 Level FlightAware ADS-B
Tue 03:12:50 PM 42.1350 -87.7490 219° Southwest 250 288 9,700 -955 Descending FlightAware ADS-B
Tue 03:13:05 PM 42.1190 -87.7660 218° Southwest 249 287 9,300 -1,364 Descending FlightAware ADS-B
Tue 03:13:34 PM 42.0960 -87.7980 226° Southwest 238 274 8,700 -1,231 Descending FlightAware ADS-B
Tue 03:13:44 PM 42.0920 -87.8120 249° West 231 266 8,500 -1,235 Descending FlightAware ADS-B
Tue 03:14:08 PM 42.0920 -87.8460 270° West 227 261 8,000 -1,200 Descending FlightAware ADS-B
Tue 03:14:34 PM 42.0920 -87.8820 270° West 227 261 7,500 -1,038 Descending FlightAware ADS-B
Tue 03:15:00 PM 42.0920 -87.9190 270° West 226 260 7,100 -414 Descending FlightAware ADS-B
Tue 03:15:32 PM 42.0920 -87.9620 270° West 230 265 7,100  Level FlightAware ADS-B
Tue 03:15:58 PM 42.0920 -88.0000 270° West 225 259 7,100  Level FlightAware ADS-B
Tue 03:16:06 PM 42.0920 -88.0110 270° West 226 260 7,100  Level FlightAware ADS-B
Tue 03:16:42 PM 42.0920 -88.0620 270° West 228 262 7,100 -188 Level FlightAware ADS-B
Tue 03:17:10 PM 42.0920 -88.1010 270° West 227 261 6,900 -857 Descending FlightAware ADS-B
Tue 03:17:38 PM 42.0920 -88.1410 270° West 229 264 6,300 -889 Descending FlightAware ADS-B
Tue 03:18:04 PM 42.0910 -88.1780 268° West 232 267 6,100 -222 Descending FlightAware ADS-B
Tue 03:18:32 PM 42.0910 -88.2190 270° West 228 262 6,100  Level FlightAware ADS-B
Tue 03:18:46 PM 42.0910 -88.2390 270° West 232 267 6,100 -300 Level FlightAware ADS-B
Tue 03:19:12 PM 42.0900 -88.2760 268° West 228 262 5,900 -667 Descending FlightAware ADS-B
Tue 03:19:22 PM 42.0870 -88.2890 253° West 230 265 5,700 -1,091 Descending FlightAware ADS-B
Tue 03:19:34 PM 42.0780 -88.3020 227° Southwest 231 266 5,500 -1,200 Descending FlightAware ADS-B
Tue 03:19:47 PM 42.0650 -88.3080 199° South 233 268 5,200 -1,171 Descending FlightAware ADS-B
Tue 03:20:15 PM 42.0380 -88.3000 168° South 247 284 4,700 -1,034 Descending FlightAware ADS-B
Tue 03:20:45 PM 42.0060 -88.2810 156° South 241 277 4,200 -818 Descending FlightAware ADS-B
Tue 03:20:59 PM 41.9950 -88.2640 131° Southeast 237 273 4,100 -231 Descending FlightAware ADS-B
Tue 03:21:11 PM 41.9880 -88.2480 120° Southeast 236 272 4,100  Level FlightAware ADS-B
Tue 03:21:44 PM 41.9720 -88.2080 118° Southeast 214 246 4,100  Level FlightAware ADS-B
Tue 03:22:08 PM 41.9680 -88.1790 101° East 197 227 4,100 -429 Level FlightAware ADS-B
Tue 03:22:40 PM 41.9680 -88.1390 90° East 199 229 3,700 -824 Descending FlightAware ADS-B
Tue 03:22:59 PM 41.9680 -88.1150 90° East 194 223 3,400 -985 Descending FlightAware ADS-B
Tue 03:23:47 PM 41.9690 -88.0610 89° East 181 208 2,600 -973 Descending FlightAware ADS-B
Tue 03:24:13 PM 41.9690 -88.0340 90° East 165 190 2,200 -842 Descending FlightAware ADS-B
Tue 03:24:44 PM 41.9690 -88.0040 90° East 151 174 1,800 -800 Descending FlightAware ADS-B
Tue 03:25:13 PM 41.9690 -87.9750 90° East 154 177 1,400 -878 Descending FlightAware ADS-B
Tue 03:25:25 PM 41.9690 -87.9630 90° East 153 176 1,200 -857 Descending FlightAware ADS-B
Tue 03:25:55 PM 41.9690 -87.9350 90° East 150 173 800 -476 Descending FlightAware ADS-B
Tue 03:26:28 PM 41.9690 -87.9090 90° East 149 171 700 -182 Descending FlightAware ADS-B

Login

Don't have an account? Register now (free) for customized features, flight alerts, and more!